Time;durP1;ratioP1;P1;durP2;ratioP2;P2;SDS_P1;SDS_P2;PMS_P1;PMS_P2;Temp;Humidity;BMP_temperature;BMP_pressure;BME280_temperature;BME280_humidity;BME280_pressure;Samples;Min_cycle;Max_cycle;Signal;HPM_P1;HPM_P2
2022/09/19 00:01:53;;;;;;;1.77;0.80;;;;;;;7.15;100.00;100057.41;5010362;28;20242;-70
2022/09/19 00:04:30;;;;;;;1.83;1.10;;;;;;;7.28;100.00;100057.72;5019560;28;20231;-71
2022/09/19 00:06:58;;;;;;;6.03;2.07;;;;;;;7.30;100.00;100052.56;5008768;28;20207;-71
2022/09/19 00:09:27;;;;;;;3.30;1.23;;;;;;;7.32;100.00;100051.59;5017878;28;20707;-71
2022/09/19 00:11:53;;;;;;;2.40;1.23;;;;;;;7.40;100.00;100057.19;5028539;28;20257;-70
2022/09/19 00:14:23;;;;;;;5.27;1.30;;;;;;;7.35;100.00;100054.00;5029222;28;21252;-70
2022/09/19 00:16:56;;;;;;;3.47;1.10;;;;;;;7.41;100.00;100058.88;5030431;28;20238;-70
2022/09/19 00:19:21;;;;;;;2.17;1.00;;;;;;;7.34;100.00;100057.44;5019667;28;20224;-70
2022/09/19 00:21:48;;;;;;;2.27;1.00;;;;;;;7.32;100.00;100056.72;5012022;28;20225;-70
2022/09/19 00:27:04;;;;;;;2.27;0.70;;;;;;;7.11;100.00;100068.66;5030499;28;20722;-70
2022/09/19 00:29:32;;;;;;;4.50;1.10;;;;;;;7.10;100.00;100067.81;5020590;28;20707;-70
2022/09/19 00:31:57;;;;;;;4.07;1.47;;;;;;;7.22;100.00;100061.38;5025277;28;20309;-74
2022/09/19 00:34:25;;;;;;;4.17;1.70;;;;;;;7.28;100.00;100070.50;5016162;28;20189;-71
2022/09/19 00:36:51;;;;;;;4.97;1.50;;;;;;;7.47;100.00;100070.59;5011861;28;20199;-70
2022/09/19 00:39:21;;;;;;;4.43;1.47;;;;;;;7.56;100.00;100066.81;5019917;28;20218;-69
2022/09/19 00:41:49;;;;;;;2.17;1.20;;;;;;;7.68;100.00;100070.56;5026202;28;20314;-69
2022/09/19 00:44:30;;;;;;;4.00;1.10;;;;;;;7.67;100.00;100077.41;5028003;28;20352;-68
2022/09/19 00:47:09;;;;;;;5.67;1.57;;;;;;;7.74;100.00;100073.69;5014322;28;20190;-70
2022/09/19 00:49:40;;;;;;;11.90;1.50;;;;;;;7.87;100.00;100076.53;5022674;28;20726;-68
2022/09/19 00:52:34;;;;;;;5.63;1.30;;;;;;;7.90;100.00;100078.97;5014059;28;20253;-70
2022/09/19 00:55:00;;;;;;;4.00;1.33;;;;;;;7.89;100.00;100076.50;5010459;28;20181;-69
2022/09/19 00:57:38;;;;;;;5.87;1.23;;;;;;;7.94;100.00;100083.97;5017810;28;20190;-69
2022/09/19 01:00:09;;;;;;;6.87;1.53;;;;;;;7.99;100.00;100084.59;5007176;28;20315;-68
2022/09/19 01:02:34;;;;;;;4.10;1.80;;;;;;;7.97;100.00;100083.84;5040329;28;20273;-68
2022/09/19 01:05:02;;;;;;;8.90;1.30;;;;;;;8.08;100.00;100077.31;5024076;28;20671;-68
2022/09/19 01:07:43;;;;;;;4.30;1.57;;;;;;;8.17;100.00;100088.06;5018712;28;20177;-68
2022/09/19 01:10:24;;;;;;;4.50;1.43;;;;;;;8.26;100.00;100087.69;5003178;28;20190;-68
2022/09/19 01:12:56;;;;;;;8.40;1.60;;;;;;;8.13;100.00;100092.50;5022572;28;20196;-68
2022/09/19 01:15:32;;;;;;;7.97;1.53;;;;;;;8.10;100.00;100091.81;5011566;28;20195;-69
2022/09/19 01:18:00;;;;;;;8.50;1.60;;;;;;;8.02;100.00;100092.97;5029933;28;20197;-69
2022/09/19 01:20:56;;;;;;;3.03;1.67;;;;;;;8.07;100.00;100093.63;5017396;28;20678;-69
2022/09/19 01:23:59;;;;;;;5.83;1.43;;;;;;;8.20;100.00;100098.19;5017665;28;20226;-69
2022/09/19 01:26:45;;;;;;;6.23;1.33;;;;;;;8.34;100.00;100100.13;5024705;28;20188;-69
2022/09/19 01:29:24;;;;;;;5.43;1.13;;;;;;;8.36;100.00;100103.44;5016099;28;20213;-69
2022/09/19 01:31:55;;;;;;;5.57;1.67;;;;;;;8.42;100.00;100107.47;4998695;28;20313;-69
2022/09/19 01:34:34;;;;;;;6.53;1.27;;;;;;;8.39;100.00;100100.75;5012144;28;20205;-70
2022/09/19 01:37:30;;;;;;;6.40;1.30;;;;;;;8.48;100.00;100100.34;5027040;28;20192;-69
2022/09/19 01:39:58;;;;;;;5.53;1.40;;;;;;;8.66;100.00;100105.56;5001366;28;20202;-70
2022/09/19 01:42:29;;;;;;;5.33;1.53;;;;;;;8.66;100.00;100110.69;5018674;28;20265;-67
2022/09/19 01:44:54;;;;;;;7.03;1.77;;;;;;;8.73;100.00;100104.34;5021192;28;20186;-68
2022/09/19 01:47:49;;;;;;;5.87;1.53;;;;;;;8.67;100.00;100105.47;5010106;28;20241;-70
2022/09/19 01:50:27;;;;;;;6.87;2.20;;;;;;;8.75;100.00;100109.44;4990498;28;20628;-68
2022/09/19 01:53:02;;;;;;;6.47;1.40;;;;;;;8.74;100.00;100105.19;5014558;28;20189;-68
2022/09/19 01:55:51;;;;;;;6.60;1.90;;;;;;;8.81;100.00;100104.81;5013910;28;20185;-68
2022/09/19 01:58:54;;;;;;;6.13;1.60;;;;;;;8.85;100.00;100108.09;5001630;28;20217;-69
2022/09/19 02:01:25;;;;;;;8.73;2.43;;;;;;;8.89;100.00;100114.72;5017725;28;20241;-69
2022/09/19 02:04:00;;;;;;;6.73;1.67;;;;;;;8.81;100.00;100116.84;5029284;28;20204;-71
2022/09/19 02:06:48;;;;;;;5.23;1.80;;;;;;;8.78;100.00;100115.25;5014324;28;20724;-69
2022/09/19 02:09:47;;;;;;;7.13;1.87;;;;;;;8.80;100.00;100112.59;5017566;28;20576;-69
2022/09/19 02:12:17;;;;;;;6.90;2.37;;;;;;;8.82;100.00;100127.00;5016688;28;20376;-69
2022/09/19 02:14:54;;;;;;;9.63;3.37;;;;;;;8.79;100.00;100128.88;5025931;28;20182;-69
2022/09/19 02:17:26;;;;;;;11.80;3.73;;;;;;;8.97;100.00;100135.72;5011810;28;20193;-70
2022/09/19 02:19:59;;;;;;;5.33;1.50;;;;;;;8.95;100.00;100134.94;5022716;28;20296;-70
2022/09/19 02:22:31;;;;;;;11.37;2.37;;;;;;;8.91;100.00;100128.31;5034932;28;20257;-70
2022/09/19 02:25:02;;;;;;;5.53;1.50;;;;;;;9.09;100.00;100130.91;5010204;28;20179;-71
2022/09/19 02:27:37;;;;;;;9.67;2.40;;;;;;;9.04;100.00;100134.53;5021320;28;20272;-70
2022/09/19 02:30:08;;;;;;;12.33;2.73;;;;;;;9.01;100.00;100142.34;5006886;28;20213;-69
2022/09/19 02:32:41;;;;;;;7.67;2.10;;;;;;;9.15;100.00;100144.28;5025229;28;20706;-69
2022/09/19 02:35:13;;;;;;;7.70;2.30;;;;;;;9.19;100.00;100140.66;5028559;28;20194;-70
2022/09/19 02:37:47;;;;;;;4.17;2.33;;;;;;;9.14;100.00;100141.78;5015666;28;20935;-70
2022/09/19 02:40:40;;;;;;;5.27;1.97;;;;;;;9.10;100.00;100138.53;5002779;28;20192;-70
2022/09/19 02:43:36;;;;;;;7.17;2.00;;;;;;;9.28;100.00;100138.53;5010752;28;20238;-71
2022/09/19 02:46:20;;;;;;;5.87;1.30;;;;;;;9.04;100.00;100143.94;4949693;28;20197;-70
2022/09/19 02:48:50;;;;;;;8.10;2.07;;;;;;;9.01;100.00;100149.25;4950679;29;20196;-70
2022/09/19 02:51:41;;;;;;;8.13;1.67;;;;;;;8.84;100.00;100145.75;4939454;28;20356;-71
2022/09/19 02:54:12;;;;;;;3.70;1.30;;;;;;;8.95;100.00;100147.78;4949254;29;20684;-70
2022/09/19 02:56:41;;;;;;;6.83;1.77;;;;;;;8.95;100.00;100142.66;4921794;29;20193;-69
2022/09/19 02:59:20;;;;;;;4.00;1.80;;;;;;;8.96;100.00;100158.88;4934478;29;20220;-70
2022/09/19 03:01:51;;;;;;;7.07;1.30;;;;;;;8.95;100.00;100154.66;4921857;28;20249;-69
2022/09/19 03:04:25;;;;;;;6.97;1.87;;;;;;;9.11;100.00;100152.19;4949233;29;20208;-70
2022/09/19 03:07:11;;;;;;;8.23;1.77;;;;;;;9.07;100.00;100154.09;4943691;29;20767;-70
2022/09/19 03:09:38;;;;;;;6.43;1.37;;;;;;;9.17;100.00;100157.03;4934270;29;20227;-70
2022/09/19 03:12:18;;;;;;;6.87;1.57;;;;;;;9.12;100.00;100159.81;4941350;28;20221;-70
2022/09/19 03:14:47;;;;;;;6.50;1.30;;;;;;;9.07;100.00;100156.66;4949277;29;20720;-70
2022/09/19 03:17:22;;;;;;;9.47;1.57;;;;;;;9.20;100.00;100168.00;4939070;28;20220;-70
2022/09/19 03:19:50;;;;;;;5.10;1.57;;;;;;;9.26;100.00;100169.41;4949235;29;20219;-70
2022/09/19 03:22:19;;;;;;;4.10;1.70;;;;;;;9.26;100.00;100179.69;4965855;28;20234;-70
2022/09/19 03:24:46;;;;;;;6.73;1.80;;;;;;;9.24;100.00;100175.53;5012386;28;20287;-70
2022/09/19 03:27:11;;;;;;;8.73;1.80;;;;;;;9.35;100.00;100181.84;5012037;28;20606;-70
2022/09/19 03:29:38;;;;;;;6.30;1.87;;;;;;;9.28;100.00;100175.31;5014380;28;20211;-70
2022/09/19 03:32:03;;;;;;;4.93;1.87;;;;;;;9.31;100.00;100169.22;4977456;28;20233;-69
2022/09/19 03:34:31;;;;;;;5.77;1.63;;;;;;;9.30;100.00;100177.81;5026382;28;20198;-71
2022/09/19 03:36:56;;;;;;;8.57;2.10;;;;;;;9.27;100.00;100183.09;5019507;28;20181;-70
2022/09/19 03:39:22;;;;;;;9.87;2.17;;;;;;;9.23;100.00;100181.56;5019405;28;20209;-70
2022/09/19 03:41:49;;;;;;;8.77;1.73;;;;;;;9.17;100.00;100186.09;5013599;28;20225;-70
2022/09/19 03:44:17;;;;;;;7.03;1.73;;;;;;;9.20;100.00;100185.97;5017922;28;20597;-69
2022/09/19 03:46:43;;;;;;;8.73;1.70;;;;;;;9.19;100.00;100189.44;5017864;28;21303;-70
2022/09/19 03:49:11;;;;;;;7.63;1.77;;;;;;;9.22;100.00;100187.63;5007752;28;20252;-69
2022/09/19 03:51:37;;;;;;;12.53;2.30;;;;;;;9.27;100.00;100188.25;5012747;28;20772;-69
2022/09/19 03:54:03;;;;;;;10.17;2.47;;;;;;;9.22;100.00;100195.34;5010863;28;20281;-70
2022/09/19 03:56:30;;;;;;;9.13;1.90;;;;;;;9.38;100.00;100193.69;5014584;28;20689;-71
2022/09/19 03:58:56;;;;;;;8.70;2.20;;;;;;;9.45;100.00;100196.78;5015312;28;20202;-71
2022/09/19 04:01:21;;;;;;;8.80;2.07;;;;;;;9.57;100.00;100192.78;5016474;28;20256;-69
2022/09/19 04:03:48;;;;;;;15.00;2.30;;;;;;;9.42;100.00;100196.94;5032387;28;20178;-73
2022/09/19 04:06:14;;;;;;;8.47;2.27;;;;;;;9.47;100.00;100197.53;5029706;28;20185;-69
2022/09/19 04:08:40;;;;;;;10.77;2.30;;;;;;;9.47;100.00;100200.13;5020729;28;20695;-69
2022/09/19 04:11:05;;;;;;;9.37;2.40;;;;;;;9.45;100.00;100207.91;5008345;28;20233;-69
2022/09/19 04:13:33;;;;;;;7.67;1.90;;;;;;;9.47;100.00;100208.63;5032694;28;20190;-70
2022/09/19 04:16:05;;;;;;;8.07;1.77;;;;;;;9.44;100.00;100210.50;5025541;28;20256;-70
2022/09/19 04:18:32;;;;;;;6.77;2.20;;;;;;;9.33;100.00;100211.88;5019075;28;20198;-70
2022/09/19 04:21:03;;;;;;;5.97;1.80;;;;;;;9.51;100.00;100223.00;5013276;28;20811;-70
2022/09/19 04:23:28;;;;;;;8.77;2.00;;;;;;;9.46;100.00;100219.81;5011549;28;20190;-70
2022/09/19 04:25:55;;;;;;;7.83;2.00;;;;;;;9.27;100.00;100214.72;5014786;28;20237;-70
2022/09/19 04:28:22;;;;;;;9.47;2.27;;;;;;;9.46;100.00;100217.22;5016712;28;20285;-70
2022/09/19 04:30:48;;;;;;;10.60;2.03;;;;;;;9.35;100.00;100225.47;5015198;28;20322;-69
2022/09/19 04:33:15;;;;;;;12.70;2.17;;;;;;;9.33;100.00;100223.88;5013597;28;20273;-69
2022/09/19 04:35:41;;;;;;;9.03;1.93;;;;;;;9.35;100.00;100222.91;5016179;28;20646;-69
2022/09/19 04:38:11;;;;;;;6.87;2.13;;;;;;;9.50;100.00;100233.31;5018779;28;20701;-69
2022/09/19 04:40:49;;;;;;;8.17;2.30;;;;;;;9.35;100.00;100228.03;5006600;28;20242;-70
2022/09/19 04:43:18;;;;;;;9.43;2.30;;;;;;;9.53;100.00;100235.75;5020534;28;20279;-69
2022/09/19 04:45:48;;;;;;;10.00;2.27;;;;;;;9.48;100.00;100235.97;5016536;28;20229;-70
2022/09/19 04:48:14;;;;;;;8.83;2.53;;;;;;;9.43;100.00;100243.06;5012745;28;20179;-70
2022/09/19 04:50:40;;;;;;;13.47;2.93;;;;;;;9.48;100.00;100243.69;5004414;28;20269;-70
2022/09/19 04:53:13;;;;;;;9.43;2.60;;;;;;;9.44;100.00;100243.88;5028714;28;20214;-69
2022/09/19 04:55:41;;;;;;;9.03;2.50;;;;;;;9.47;100.00;100243.75;5030622;28;20661;-69
2022/09/19 04:58:07;;;;;;;13.23;2.30;;;;;;;9.61;100.00;100246.50;5027912;28;20337;-70
2022/09/19 05:00:38;;;;;;;13.23;2.50;;;;;;;9.52;100.00;100246.94;5015654;28;20320;-70
2022/09/19 05:03:11;;;;;;;8.27;2.60;;;;;;;9.49;100.00;100254.81;5031948;28;20596;-69
2022/09/19 05:05:44;;;;;;;8.77;2.10;;;;;;;9.64;100.00;100255.81;5028620;28;20714;-70
2022/09/19 05:08:12;;;;;;;12.50;2.10;;;;;;;9.57;100.00;100255.25;5024935;28;20258;-70
2022/09/19 05:10:47;;;;;;;8.53;2.20;;;;;;;9.51;100.00;100263.25;5004235;28;20352;-69
2022/09/19 05:13:14;;;;;;;7.73;2.50;;;;;;;9.45;100.00;100258.41;5012887;28;20671;-69
2022/09/19 05:15:43;;;;;;;7.30;1.93;;;;;;;9.44;100.00;100264.44;5015218;28;20623;-69
2022/09/19 05:18:10;;;;;;;9.33;2.33;;;;;;;9.46;100.00;100253.19;5009564;28;20202;-69
2022/09/19 05:20:38;;;;;;;6.20;2.03;;;;;;;9.47;100.00;100252.28;4999884;28;20254;-71
2022/09/19 05:23:06;;;;;;;7.90;2.20;;;;;;;9.31;100.00;100262.44;5018703;28;20258;-69
2022/09/19 05:25:36;;;;;;;9.30;2.47;;;;;;;9.43;100.00;100255.91;5010555;28;20190;-71
2022/09/19 05:28:06;;;;;;;10.13;3.13;;;;;;;9.44;100.00;100264.44;5017152;28;20664;-69
2022/09/19 05:30:36;;;;;;;13.93;2.60;;;;;;;9.45;100.00;100261.81;5013588;28;20678;-70
2022/09/19 05:33:06;;;;;;;13.27;2.90;;;;;;;9.42;100.00;100264.50;5024470;28;20193;-68
2022/09/19 05:35:38;;;;;;;7.87;2.33;;;;;;;9.27;100.00;100270.38;5025923;28;20265;-68
2022/09/19 05:38:07;;;;;;;11.07;3.23;;;;;;;9.20;100.00;100273.22;5014050;28;20233;-68
2022/09/19 05:40:32;;;;;;;12.37;2.50;;;;;;;9.22;100.00;100275.72;5009189;28;20688;-68
2022/09/19 05:43:02;;;;;;;13.93;2.70;;;;;;;9.17;100.00;100290.50;5014202;28;20226;-70
2022/09/19 05:45:27;;;;;;;15.70;3.43;;;;;;;9.13;100.00;100283.81;5017439;28;20554;-69
2022/09/19 05:47:59;;;;;;;10.30;2.70;;;;;;;9.20;100.00;100293.75;5019909;28;20186;-70
2022/09/19 05:50:24;;;;;;;8.17;2.50;;;;;;;9.37;100.00;100294.72;5018847;28;20624;-69
2022/09/19 05:55:40;;;;;;;8.60;2.93;;;;;;;9.49;100.00;100301.03;5023121;28;20197;-69
2022/09/19 05:58:06;;;;;;;12.03;2.40;;;;;;;9.54;100.00;100291.38;5024778;28;20285;-69
2022/09/19 06:00:31;;;;;;;8.57;3.20;;;;;;;9.59;100.00;100294.53;5010171;28;20312;-69
2022/09/19 06:03:02;;;;;;;8.53;2.87;;;;;;;9.68;100.00;100288.94;5010354;28;20202;-69
2022/09/19 06:05:32;;;;;;;12.77;3.00;;;;;;;9.67;100.00;100301.88;5017548;28;20178;-69
2022/09/19 06:07:58;;;;;;;10.13;2.23;;;;;;;9.76;100.00;100301.44;5024932;28;20262;-70
2022/09/19 06:10:24;;;;;;;11.30;2.33;;;;;;;9.87;100.00;100306.06;5000587;28;20662;-67
2022/09/19 06:12:53;;;;;;;9.93;2.70;;;;;;;9.83;100.00;100312.25;5024697;28;20179;-67
2022/09/19 06:15:18;;;;;;;8.70;2.37;;;;;;;9.90;100.00;100318.75;5016232;28;20204;-67
2022/09/19 06:17:49;;;;;;;10.10;2.27;;;;;;;10.02;100.00;100323.31;5014188;28;20642;-68
2022/09/19 06:20:20;;;;;;;11.63;2.93;;;;;;;10.20;100.00;100318.16;4992773;28;20226;-69
2022/09/19 06:22:46;;;;;;;9.43;2.10;;;;;;;10.08;100.00;100318.78;5023208;28;20222;-69
2022/09/19 06:25:13;;;;;;;9.60;2.13;;;;;;;10.17;100.00;100321.72;5012612;28;20296;-70
2022/09/19 06:27:46;;;;;;;5.80;1.97;;;;;;;10.32;100.00;100327.84;5013419;28;20183;-68
2022/09/19 06:30:16;;;;;;;6.97;2.07;;;;;;;10.88;100.00;100329.34;5001723;28;20210;-69
2022/09/19 06:32:41;;;;;;;7.30;2.20;;;;;;;11.49;100.00;100335.56;5014758;28;20541;-68
2022/09/19 06:35:12;;;;;;;8.30;2.03;;;;;;;11.76;100.00;100328.06;5007449;28;20332;-68
2022/09/19 06:37:37;;;;;;;6.07;2.10;;;;;;;12.09;100.00;100332.28;5010766;28;20174;-69
2022/09/19 06:40:08;;;;;;;7.33;2.30;;;;;;;12.35;100.00;100327.34;5004866;28;20205;-69
2022/09/19 06:42:34;;;;;;;9.27;2.30;;;;;;;12.17;100.00;100333.56;5002106;28;20591;-68
2022/09/19 06:45:03;;;;;;;10.10;2.30;;;;;;;12.10;100.00;100349.38;5008906;28;20190;-69
2022/09/19 06:47:31;;;;;;;7.77;2.10;;;;;;;11.94;100.00;100340.84;5011382;28;20269;-68
2022/09/19 06:50:02;;;;;;;4.33;1.70;;;;;;;12.02;100.00;100336.13;5009851;28;20628;-70
2022/09/19 06:52:27;;;;;;;4.73;2.03;;;;;;;12.67;100.00;100340.09;4998900;28;20237;-72
2022/09/19 06:54:53;;;;;;;6.37;2.23;;;;;;;12.70;100.00;100341.66;5007680;28;20187;-69
2022/09/19 06:57:22;;;;;;;6.73;1.87;;;;;;;12.50;100.00;100348.84;5009967;28;20673;-69
2022/09/19 06:59:53;;;;;;;4.63;1.90;;;;;;;12.20;100.00;100354.84;5007258;28;20206;-69
2022/09/19 07:02:21;;;;;;;6.27;2.27;;;;;;;12.05;100.00;100358.31;4979236;28;20662;-70
2022/09/19 07:04:46;;;;;;;7.90;2.00;;;;;;;11.91;100.00;100357.31;5007391;28;20299;-70
2022/09/19 07:07:15;;;;;;;5.50;1.63;;;;;;;11.78;100.00;100362.31;5009905;28;20190;-70
2022/09/19 07:09:40;;;;;;;3.60;1.57;;;;;;;12.47;100.00;100363.69;5007907;28;20256;-71
2022/09/19 07:12:08;;;;;;;4.63;1.77;;;;;;;14.28;100.00;100349.97;4996410;28;20724;-69
2022/09/19 07:14:34;;;;;;;4.83;1.57;;;;;;;15.60;86.31;100352.19;5008701;28;20186;-74
2022/09/19 07:16:59;;;;;;;5.30;1.67;;;;;;;16.29;78.13;100362.75;5013469;28;20233;-75
2022/09/19 07:19:24;;;;;;;6.37;2.33;;;;;;;16.63;74.96;100356.78;5009473;28;20736;-72
2022/09/19 07:21:53;;;;;;;5.03;1.60;;;;;;;17.31;69.68;100355.97;4996314;28;20233;-69
2022/09/19 07:24:24;;;;;;;5.00;1.50;;;;;;;18.49;64.07;100350.78;5006949;28;20198;-70
2022/09/19 07:26:55;;;;;;;7.07;2.00;;;;;;;18.62;60.53;100363.56;5006093;28;20647;-71
2022/09/19 07:29:20;;;;;;;4.47;1.50;;;;;;;18.58;61.58;100359.59;5009604;28;20301;-74
2022/09/19 07:31:49;;;;;;;5.60;1.87;;;;;;;19.31;57.87;100369.91;4968374;28;20238;-70
2022/09/19 07:34:17;;;;;;;7.93;2.27;;;;;;;19.46;57.01;100370.34;5011066;28;20657;-69
2022/09/19 07:36:46;;;;;;;4.30;1.73;;;;;;;19.30;57.00;100385.66;5014678;28;20285;-70
2022/09/19 07:39:11;;;;;;;7.67;1.73;;;;;;;18.86;61.73;100381.50;5014612;28;20202;-68
2022/09/19 07:41:36;;;;;;;4.73;1.90;;;;;;;19.01;60.60;100381.19;5004538;28;20252;-70
2022/09/19 07:44:02;;;;;;;7.43;1.63;;;;;;;17.99;65.40;100393.03;5012342;28;20599;-69
2022/09/19 07:46:29;;;;;;;7.00;1.60;;;;;;;16.42;72.53;100401.63;5019438;28;20190;-69
2022/09/19 07:48:57;;;;;;;7.37;2.07;;;;;;;16.61;74.26;100393.25;5021461;28;20217;-69
2022/09/19 07:51:22;;;;;;;7.13;1.70;;;;;;;16.91;71.55;100396.25;5024072;28;20229;-68
2022/09/19 07:53:49;;;;;;;6.80;1.90;;;;;;;17.95;66.07;100394.25;5019654;28;20185;-69
2022/09/19 07:56:14;;;;;;;4.27;1.53;;;;;;;18.87;58.68;100398.78;5018670;28;20665;-69
2022/09/19 07:58:39;;;;;;;8.90;1.67;;;;;;;19.27;57.49;100389.34;5012726;28;20206;-69
2022/09/19 08:01:07;;;;;;;3.20;1.47;;;;;;;18.85;56.35;100398.13;5010838;28;20744;-68
2022/09/19 08:03:36;;;;;;;2.53;1.23;;;;;;;19.31;56.83;100408.16;5028260;28;20194;-69
2022/09/19 08:06:02;;;;;;;4.00;1.60;;;;;;;18.93;56.21;100420.94;5029309;28;20210;-70
2022/09/19 08:08:29;;;;;;;2.50;1.37;;;;;;;18.89;58.31;100419.53;5018021;28;20225;-69
2022/09/19 08:11:00;;;;;;;5.47;1.50;;;;;;;18.02;58.97;100428.41;5017399;28;20226;-69
2022/09/19 08:13:29;;;;;;;3.67;1.80;;;;;;;17.22;67.24;100423.31;5011606;28;20183;-69
2022/09/19 08:15:55;;;;;;;3.43;1.43;;;;;;;16.51;75.05;100433.84;5014700;28;20642;-69
2022/09/19 08:18:23;;;;;;;12.30;1.63;;;;;;;16.07;76.46;100443.94;5011615;28;20214;-69
2022/09/19 08:20:51;;;;;;;8.70;2.20;;;;;;;16.35;77.72;100434.16;5005323;28;20238;-68
2022/09/19 08:23:21;;;;;;;6.23;1.70;;;;;;;17.14;74.03;100441.31;5011809;28;20715;-70
2022/09/19 08:25:50;;;;;;;4.77;2.00;;;;;;;17.71;66.39;100433.41;5018604;28;20198;-70
2022/09/19 08:28:22;;;;;;;4.03;1.57;;;;;;;16.97;73.30;100437.38;5027901;28;20645;-68
2022/09/19 08:30:48;;;;;;;5.00;1.93;;;;;;;16.23;77.77;100443.66;5014017;28;20309;-69
2022/09/19 08:33:14;;;;;;;5.97;1.80;;;;;;;16.55;79.41;100448.25;5016176;28;20589;-68
2022/09/19 08:35:41;;;;;;;4.93;1.77;;;;;;;16.59;77.85;100441.06;5020129;28;20189;-67
2022/09/19 08:38:13;;;;;;;6.10;2.00;;;;;;;15.73;82.56;100448.94;5021097;28;20203;-68
2022/09/19 08:40:39;;;;;;;5.30;1.97;;;;;;;15.67;86.38;100458.91;5009019;28;20264;-69
2022/09/19 08:43:14;;;;;;;7.67;1.87;;;;;;;14.77;89.82;100463.22;5012934;28;20694;-68
2022/09/19 08:46:13;;;;;;;6.83;1.90;;;;;;;14.48;96.00;100467.69;5011175;28;20197;-69
2022/09/19 08:48:48;;;;;;;5.47;2.00;;;;;;;14.50;100.00;100464.06;5004715;28;20562;-68
2022/09/19 08:51:19;;;;;;;10.60;2.23;;;;;;;14.43;100.00;100464.59;5009924;28;20280;-67
2022/09/19 08:53:50;;;;;;;7.17;2.20;;;;;;;15.22;100.00;100460.22;5027700;28;20174;-68
2022/09/19 08:56:18;;;;;;;5.50;2.30;;;;;;;15.52;91.87;100461.63;5016457;28;20206;-67
2022/09/19 08:58:57;;;;;;;5.10;2.00;;;;;;;16.14;89.20;100468.50;5021399;28;20311;-67
2022/09/19 09:01:27;;;;;;;8.10;2.13;;;;;;;18.05;72.29;100457.59;5012747;28;20244;-68
2022/09/19 09:04:24;;;;;;;6.37;1.93;;;;;;;18.83;63.86;100461.75;5029712;28;20269;-68
2022/09/19 09:07:13;;;;;;;9.67;1.70;;;;;;;18.98;61.33;100467.47;5012938;28;20205;-68
2022/09/19 09:09:59;;;;;;;6.70;1.87;;;;;;;19.77;57.54;100468.56;5016011;28;20637;-69
2022/09/19 09:13:00;;;;;;;4.00;1.50;;;;;;;20.45;53.18;100470.41;4998243;28;20325;-67
2022/09/19 09:15:40;;;;;;;5.90;1.97;;;;;;;19.50;57.71;100467.41;5010805;28;20178;-70
2022/09/19 09:18:30;;;;;;;4.83;1.97;;;;;;;19.64;55.60;100467.03;5010098;28;20183;-68
2022/09/19 09:21:03;;;;;;;3.17;1.50;;;;;;;17.89;66.24;100470.19;5006008;28;20218;-68
2022/09/19 09:23:55;;;;;;;6.13;1.90;;;;;;;17.03;72.46;100473.31;5012413;28;20561;-68
2022/09/19 09:26:29;;;;;;;3.40;1.43;;;;;;;17.14;73.20;100474.25;5009623;28;20186;-68
2022/09/19 09:28:55;;;;;;;4.13;1.73;;;;;;;16.21;81.56;100465.47;5005718;28;20198;-69
2022/09/19 09:31:50;;;;;;;6.03;1.80;;;;;;;15.87;84.23;100475.69;5021652;28;20632;-67
2022/09/19 09:34:27;;;;;;;7.47;2.03;;;;;;;15.82;85.60;100466.44;5013764;28;20218;-68
2022/09/19 09:37:07;;;;;;;5.03;1.67;;;;;;;16.04;83.47;100461.50;4999111;28;20183;-69
2022/09/19 09:39:59;;;;;;;5.33;1.73;;;;;;;16.28;82.73;100457.13;5013172;28;20287;-69
2022/09/19 09:42:32;;;;;;;5.17;2.00;;;;;;;17.29;75.65;100467.03;5021283;28;20249;-68
2022/09/19 09:45:16;;;;;;;6.70;1.70;;;;;;;18.81;64.47;100456.63;5014237;28;20265;-68
2022/09/19 09:48:05;;;;;;;3.50;1.63;;;;;;;18.52;64.92;100456.47;5029942;28;20713;-68
2022/09/19 09:50:48;;;;;;;4.13;1.50;;;;;;;20.49;53.95;100453.47;5005578;28;20237;-68
2022/09/19 09:53:50;;;;;;;3.43;1.20;;;;;;;20.15;54.86;100457.34;5017458;28;20634;-68
2022/09/19 09:56:41;;;;;;;6.53;1.70;;;;;;;21.97;47.25;100457.19;5008597;28;20261;-68
2022/09/19 10:05:28;;;;;;;3.87;1.50;;;;;;;19.70;52.95;100449.19;5000229;28;20189;-68
2022/09/19 10:08:05;;;;;;;4.03;1.60;;;;;;;18.17;61.70;100452.34;5022713;28;20187;-70
2022/09/19 10:10:33;;;;;;;6.80;1.90;;;;;;;16.72;72.66;100449.59;5000794;28;20592;-67
2022/09/19 10:13:25;;;;;;;6.00;1.90;;;;;;;16.31;78.68;100463.88;5022421;28;20265;-68
2022/09/19 10:15:55;;;;;;;7.37;1.80;;;;;;;17.12;74.89;100471.78;5017021;28;20187;-68
2022/09/19 10:18:26;;;;;;;6.57;1.77;;;;;;;18.61;64.81;100460.91;5012067;28;20288;-67
2022/09/19 10:20:52;;;;;;;7.90;2.00;;;;;;;18.92;59.55;100466.22;5018786;28;20230;-68
2022/09/19 10:23:25;;;;;;;5.47;2.00;;;;;;;18.02;65.87;100472.66;5024532;28;20190;-68
2022/09/19 10:26:06;;;;;;;5.77;1.70;;;;;;;17.09;65.40;100467.66;5019602;28;20181;-68
2022/09/19 10:28:43;;;;;;;5.63;1.73;;;;;;;15.94;72.65;100464.75;5013787;28;20628;-68
2022/09/19 10:31:29;;;;;;;5.27;1.90;;;;;;;15.78;75.67;100467.59;4999989;28;20684;-67
2022/09/19 10:33:59;;;;;;;5.13;1.73;;;;;;;16.05;76.12;100460.56;5024326;28;20672;-67
2022/09/19 10:36:33;;;;;;;8.27;2.00;;;;;;;16.72;74.18;100461.75;5014525;28;20273;-68
2022/09/19 10:39:12;;;;;;;10.17;2.30;;;;;;;16.95;70.22;100449.66;5016263;28;20293;-68
2022/09/19 10:41:40;;;;;;;14.30;2.10;;;;;;;16.80;70.46;100456.00;5013169;28;20225;-68
2022/09/19 10:44:19;;;;;;;7.37;2.10;;;;;;;16.96;71.07;100450.50;5008643;28;20230;-68
2022/09/19 10:46:58;;;;;;;7.80;1.97;;;;;;;17.01;71.07;100462.19;5019033;28;20194;-68
2022/09/19 10:49:34;;;;;;;6.23;2.00;;;;;;;17.18;68.47;100457.47;5013466;28;20281;-69
2022/09/19 10:52:00;;;;;;;7.80;1.90;;;;;;;17.22;67.61;100451.09;5014733;28;20245;-69
2022/09/19 10:54:32;;;;;;;5.60;2.03;;;;;;;17.61;68.67;100445.50;5012457;28;20274;-69
2022/09/19 10:56:58;;;;;;;8.70;2.27;;;;;;;17.22;68.04;100458.91;5023817;28;20240;-68
2022/09/19 10:59:27;;;;;;;8.17;2.33;;;;;;;16.97;68.08;100452.97;5022571;28;20260;-66
2022/09/19 11:02:16;;;;;;;8.07;1.63;;;;;;;16.91;70.83;100464.66;4977622;28;20229;-68
2022/09/19 11:04:54;;;;;;;7.53;2.10;;;;;;;16.87;68.40;100460.63;5012692;28;20257;-67
2022/09/19 11:07:26;;;;;;;6.30;1.87;;;;;;;16.94;71.29;100458.41;5013663;28;20273;-67
2022/09/19 11:09:58;;;;;;;7.13;1.70;;;;;;;17.19;69.54;100461.72;5020426;28;20595;-67
2022/09/19 11:12:24;;;;;;;7.33;2.40;;;;;;;17.06;67.85;100457.47;5003341;28;20576;-67
2022/09/19 11:14:50;;;;;;;7.83;1.73;;;;;;;17.13;66.49;100452.63;5022084;28;20213;-68
2022/09/19 11:17:47;;;;;;;6.80;1.87;;;;;;;16.84;68.92;100465.22;5009305;28;20221;-67
2022/09/19 11:20:18;;;;;;;6.10;1.50;;;;;;;16.59;70.62;100464.44;5008832;28;20263;-67
2022/09/19 11:23:13;;;;;;;5.13;1.83;;;;;;;17.01;71.61;100448.38;5034174;28;20209;-68
2022/09/19 11:26:02;;;;;;;10.30;1.93;;;;;;;17.15;69.64;100445.53;5016725;28;20195;-67
2022/09/19 11:28:49;;;;;;;4.67;1.43;;;;;;;17.51;64.20;100445.41;5016221;28;20182;-68
2022/09/19 11:31:32;;;;;;;5.93;2.17;;;;;;;17.19;66.69;100449.56;4998392;28;20268;-67
2022/09/19 11:34:07;;;;;;;4.43;1.33;;;;;;;17.47;66.76;100454.41;5025918;28;20182;-74
2022/09/19 11:36:54;;;;;;;5.73;1.53;;;;;;;17.37;67.57;100449.09;5027964;28;20181;-68
2022/09/19 11:39:54;;;;;;;6.17;1.47;;;;;;;17.69;68.27;100453.53;5021515;28;20563;-68
2022/09/19 11:42:57;;;;;;;6.07;1.70;;;;;;;17.53;69.54;100453.94;5003055;28;20257;-68
2022/09/19 11:45:31;;;;;;;5.37;1.73;;;;;;;17.70;69.63;100449.97;5009042;28;20265;-69
2022/09/19 11:48:27;;;;;;;5.17;1.30;;;;;;;17.28;68.05;100458.44;5025975;28;20669;-68
2022/09/19 11:51:26;;;;;;;6.23;1.63;;;;;;;16.76;71.42;100447.59;5004769;28;20303;-69
2022/09/19 11:54:07;;;;;;;15.13;1.77;;;;;;;17.07;72.80;100445.31;5013430;28;20210;-68
2022/09/19 11:56:56;;;;;;;7.60;1.70;;;;;;;17.46;72.10;100444.94;5020009;28;20190;-69
2022/09/19 11:59:54;;;;;;;6.97;1.70;;;;;;;17.47;69.71;100442.22;5009564;28;20207;-68
2022/09/19 12:02:46;;;;;;;7.57;2.03;;;;;;;17.38;68.40;100442.94;5015822;28;20237;-68
2022/09/19 12:05:37;;;;;;;6.67;1.77;;;;;;;17.23;66.33;100447.56;5016919;28;20229;-68